This is the latest recevied weather packets stored in our database for station/object KJ5JYX. If no packets are shown the sender has not sent any weather packets the latest 10 day(s).
| Time | Temp. | Humidity | Pressure | Rain* | Wind** | Luminosity | Snow |
|---|---|---|---|---|---|---|---|
| 1778013768 | 31.67° C | 61% | 1007.1 hPa | 0 mm | - | 352 W/m² | - |
| 1778013464 | 31.67° C | 63% | 1007.3 hPa | 0 mm | - | 521 W/m² | - |
| 1778013161 | 31.11° C | 62% | 1007.4 hPa | 0 mm | - | 602 W/m² | - |
| 1778012857 | 31.67° C | 62% | 1007.1 hPa | 0 mm | - | 470 W/m² | - |
| 1778012553 | 31.67° C | 64% | 1007.2 hPa | 0 mm | - | 590 W/m² | - |
| 1778012250 | 31.11° C | 61% | 1007.3 hPa | 0 mm | - | 557 W/m² | - |
| 1778011948 | 31.11° C | 62% | 1007.5 hPa | 0 mm | - | 534 W/m² | - |
| 1778011646 | 31.11° C | 63% | 1007.4 hPa | 0 mm | - | 420 W/m² | - |
| 1778011343 | 31.67° C | 62% | 1007.2 hPa | 0 mm | - | 653 W/m² | - |
| 1778011038 | 31.67° C | 64% | 1007.6 hPa | 0 mm | - | 636 W/m² | - |
| 1778010736 | 31.11° C | 62% | 1007.6 hPa | 0 mm | - | 633 W/m² | - |
| 1778009825 | 31.11° C | 63% | 1007.5 hPa | 0 mm | - | 468 W/m² | - |
| 1778009522 | 31.11° C | 62% | 1007.6 hPa | 0 mm | - | 597 W/m² | - |
| 1778009221 | 31.11° C | 62% | 1007.7 hPa | 0 mm | - | 703 W/m² | - |
| 1778008918 | 30.56° C | 64% | 1007.8 hPa | 0 mm | - | 705 W/m² | - |
| 1778008616 | 30.56° C | 63% | 1008 hPa | 0 mm | - | 702 W/m² | - |
| 1778006193 | 30° C | 66% | 1008.5 hPa | 0 mm | - | 750 W/m² | - |
| 1778004374 | 28.89° C | 70% | 1009.2 hPa | 0 mm | - | 648 W/m² | - |
| 1778003767 | 28.33° C | 71% | 1009.3 hPa | 0 mm | - | 661 W/m² | - |
| 1778002553 | 27.78° C | 72% | 1009.3 hPa | 0 mm | - | 681 W/m² | - |
| 1778002250 | 27.78° C | 72% | 1009.5 hPa | 0 mm | - | 611 W/m² | - |
| 1778001948 | 27.22° C | 74% | 1009.6 hPa | 0 mm | - | 675 W/m² | - |
| 1778001644 | 27.78° C | 74% | 1009.6 hPa | 0 mm | - | 741 W/m² | - |
| 1778001339 | 27.78° C | 72% | 1009.6 hPa | 0 mm | - | 607 W/m² | - |
| 1778001036 | 27.78° C | 74% | 1009.5 hPa | 0 mm | - | 650 W/m² | - |
* Rain latest hour (hover to see other rain measurements)
** Current wind speed in m/s (hover to see current wind gust speed)